sensor_id;sensor_type;location;lat;lon;timestamp;pressure;altitude;pressure_sealevel;temperature;humidity
33781;BME280;20097;50.832;19.100;2023-05-02T00:03:19;98206.13;;;9.52;85.85
33781;BME280;20097;50.832;19.100;2023-05-02T00:08:23;98200.28;;;9.42;88.36
33781;BME280;20097;50.832;19.100;2023-05-02T00:13:28;98200.28;;;9.42;87.99
33781;BME280;20097;50.832;19.100;2023-05-02T00:18:33;98198.50;;;9.43;88.18
33781;BME280;20097;50.832;19.100;2023-05-02T00:23:37;98198.03;;;9.39;88.62
33781;BME280;20097;50.832;19.100;2023-05-02T00:28:41;98196.41;;;9.30;90.22
33781;BME280;20097;50.832;19.100;2023-05-02T00:33:46;98194.81;;;9.29;90.55
33781;BME280;20097;50.832;19.100;2023-05-02T00:38:50;98188.94;;;9.27;91.88
33781;BME280;20097;50.832;19.100;2023-05-02T00:43:54;98183.91;;;9.26;91.67
33781;BME280;20097;50.832;19.100;2023-05-02T00:49:00;98179.34;;;9.28;90.56
33781;BME280;20097;50.832;19.100;2023-05-02T00:54:04;98183.41;;;9.22;93.67
33781;BME280;20097;50.832;19.100;2023-05-02T00:59:09;98174.34;;;9.18;93.63
33781;BME280;20097;50.832;19.100;2023-05-02T01:04:22;98174.84;;;9.14;94.62
33781;BME280;20097;50.832;19.100;2023-05-02T01:09:36;98180.84;;;9.14;94.07
33781;BME280;20097;50.832;19.100;2023-05-02T01:14:44;98175.31;;;9.09;96.17
33781;BME280;20097;50.832;19.100;2023-05-02T01:19:52;98172.72;;;9.09;95.85
33781;BME280;20097;50.832;19.100;2023-05-02T01:25:02;98177.75;;;9.11;97.10
33781;BME280;20097;50.832;19.100;2023-05-02T01:30:09;98175.31;;;9.09;96.87
33781;BME280;20097;50.832;19.100;2023-05-02T01:35:15;98179.09;;;9.07;98.86
33781;BME280;20097;50.832;19.100;2023-05-02T01:40:19;98174.06;;;9.05;98.67
33781;BME280;20097;50.832;19.100;2023-05-02T01:45:25;98169.50;;;9.07;98.09
33781;BME280;20097;50.832;19.100;2023-05-02T01:50:30;98157.78;;;9.03;100.00
33781;BME280;20097;50.832;19.100;2023-05-02T01:55:35;98157.44;;;9.06;99.86
33781;BME280;20097;50.832;19.100;2023-05-02T02:00:41;98156.13;;;9.10;99.07
33781;BME280;20097;50.832;19.100;2023-05-02T02:05:47;98149.59;;;9.14;98.28
33781;BME280;20097;50.832;19.100;2023-05-02T02:10:55;98143.44;;;9.15;99.16
33781;BME280;20097;50.832;19.100;2023-05-02T02:16:03;98141.13;;;9.20;99.93
33781;BME280;20097;50.832;19.100;2023-05-02T02:21:09;98146.78;;;9.24;100.00
33781;BME280;20097;50.832;19.100;2023-05-02T02:26:15;98144.66;;;9.27;100.00
33781;BME280;20097;50.832;19.100;2023-05-02T02:31:22;98149.22;;;9.33;100.00
33781;BME280;20097;50.832;19.100;2023-05-02T02:36:30;98142.84;;;9.36;100.00
33781;BME280;20097;50.832;19.100;2023-05-02T02:41:39;98146.28;;;9.36;100.00
33781;BME280;20097;50.832;19.100;2023-05-02T02:46:49;98144.94;;;9.40;100.00
33781;BME280;20097;50.832;19.100;2023-05-02T02:51:59;98147.38;;;9.42;100.00
33781;BME280;20097;50.832;19.100;2023-05-02T02:57:10;98148.84;;;9.44;100.00
33781;BME280;20097;50.832;19.100;2023-05-02T03:02:19;98150.13;;;9.48;100.00
33781;BME280;20097;50.832;19.100;2023-05-02T03:07:26;98144.06;;;9.56;100.00
33781;BME280;20097;50.832;19.100;2023-05-02T03:12:32;98144.03;;;9.64;100.00
33781;BME280;20097;50.832;19.100;2023-05-02T03:17:39;98144.31;;;9.69;100.00
33781;BME280;20097;50.832;19.100;2023-05-02T03:22:43;98152.88;;;9.77;100.00
33781;BME280;20097;50.832;19.100;2023-05-02T03:27:48;98164.91;;;9.87;100.00
33781;BME280;20097;50.832;19.100;2023-05-02T03:32:53;98158.00;;;9.94;100.00
33781;BME280;20097;50.832;19.100;2023-05-02T03:37:57;98151.13;;;10.01;100.00
33781;BME280;20097;50.832;19.100;2023-05-02T03:43:02;98158.59;;;10.04;100.00
33781;BME280;20097;50.832;19.100;2023-05-02T03:48:09;98165.94;;;10.08;100.00
33781;BME280;20097;50.832;19.100;2023-05-02T03:53:13;98165.78;;;10.10;100.00
33781;BME280;20097;50.832;19.100;2023-05-02T03:58:26;98162.16;;;10.11;100.00
33781;BME280;20097;50.832;19.100;2023-05-02T04:03:32;98164.06;;;10.17;100.00
33781;BME280;20097;50.832;19.100;2023-05-02T04:08:36;98170.06;;;10.25;100.00
33781;BME280;20097;50.832;19.100;2023-05-02T04:13:41;98167.84;;;10.37;100.00
33781;BME280;20097;50.832;19.100;2023-05-02T04:18:47;98182.44;;;10.46;100.00
33781;BME280;20097;50.832;19.100;2023-05-02T04:23:51;98177.97;;;10.54;100.00
33781;BME280;20097;50.832;19.100;2023-05-02T04:28:55;98179.34;;;10.65;100.00
33781;BME280;20097;50.832;19.100;2023-05-02T04:34:01;98188.00;;;10.80;97.49
33781;BME280;20097;50.832;19.100;2023-05-02T04:39:11;98187.25;;;10.94;96.82
33781;BME280;20097;50.832;19.100;2023-05-02T04:44:22;98194.25;;;11.08;97.64
33781;BME280;20097;50.832;19.100;2023-05-02T04:49:29;98191.94;;;11.28;95.37
33781;BME280;20097;50.832;19.100;2023-05-02T04:54:33;98206.19;;;11.40;94.54
33781;BME280;20097;50.832;19.100;2023-05-02T04:59:37;98204.00;;;11.58;93.03
33781;BME280;20097;50.832;19.100;2023-05-02T05:04:43;98208.63;;;11.70;90.07
33781;BME280;20097;50.832;19.100;2023-05-02T05:09:49;98213.91;;;11.91;88.89
33781;BME280;20097;50.832;19.100;2023-05-02T05:14:56;98223.13;;;12.08;89.58
33781;BME280;20097;50.832;19.100;2023-05-02T05:20:05;98214.63;;;12.21;85.39
33781;BME280;20097;50.832;19.100;2023-05-02T05:25:12;98221.81;;;12.33;83.37
33781;BME280;20097;50.832;19.100;2023-05-02T05:30:18;98228.84;;;12.54;80.19
33781;BME280;20097;50.832;19.100;2023-05-02T05:35:24;98236.69;;;12.75;78.26
33781;BME280;20097;50.832;19.100;2023-05-02T05:40:30;98240.88;;;12.91;75.06
33781;BME280;20097;50.832;19.100;2023-05-02T05:45:34;98242.59;;;13.05;73.75
33781;BME280;20097;50.832;19.100;2023-05-02T05:50:41;98243.19;;;13.28;73.40
33781;BME280;20097;50.832;19.100;2023-05-02T05:55:46;98238.25;;;13.46;72.63
33781;BME280;20097;50.832;19.100;2023-05-02T06:00:50;98243.41;;;13.67;69.97
33781;BME280;20097;50.832;19.100;2023-05-02T06:05:55;98246.75;;;13.89;68.06
33781;BME280;20097;50.832;19.100;2023-05-02T06:11:00;98259.56;;;14.11;66.52
33781;BME280;20097;50.832;19.100;2023-05-02T06:16:05;98257.84;;;14.38;67.00
33781;BME280;20097;50.832;19.100;2023-05-02T06:21:11;98266.41;;;14.66;65.78
33781;BME280;20097;50.832;19.100;2023-05-02T06:26:15;98271.88;;;14.90;64.80
33781;BME280;20097;50.832;19.100;2023-05-02T06:31:19;98288.06;;;15.13;63.52
33781;BME280;20097;50.832;19.100;2023-05-02T06:36:25;98274.94;;;15.53;65.16
33781;BME280;20097;50.832;19.100;2023-05-02T06:41:29;98281.78;;;15.54;61.86
33781;BME280;20097;50.832;19.100;2023-05-02T06:46:33;98284.34;;;15.86;62.49
33781;BME280;20097;50.832;19.100;2023-05-02T06:51:39;98287.25;;;16.22;63.12
33781;BME280;20097;50.832;19.100;2023-05-02T06:56:43;98299.38;;;16.30;62.30
33781;BME280;20097;50.832;19.100;2023-05-02T07:01:47;98306.56;;;16.10;62.95
33781;BME280;20097;50.832;19.100;2023-05-02T07:06:52;98309.50;;;16.26;64.14
33781;BME280;20097;50.832;19.100;2023-05-02T07:11:56;98307.94;;;16.19;65.48
33781;BME280;20097;50.832;19.100;2023-05-02T07:17:00;98317.16;;;16.41;66.29
33781;BME280;20097;50.832;19.100;2023-05-02T07:22:06;98320.56;;;16.55;65.62
33781;BME280;20097;50.832;19.100;2023-05-02T07:27:11;98326.34;;;16.76;66.02
33781;BME280;20097;50.832;19.100;2023-05-02T07:32:15;98340.47;;;16.82;65.24
33781;BME280;20097;50.832;19.100;2023-05-02T07:37:21;98343.38;;;16.74;63.77
33781;BME280;20097;50.832;19.100;2023-05-02T07:42:27;98348.28;;;17.01;64.67
33781;BME280;20097;50.832;19.100;2023-05-02T07:47:32;98360.13;;;17.23;64.66
33781;BME280;20097;50.832;19.100;2023-05-02T07:52:37;98358.75;;;17.39;63.74
33781;BME280;20097;50.832;19.100;2023-05-02T07:57:41;98376.34;;;17.76;62.66
33781;BME280;20097;50.832;19.100;2023-05-02T08:02:45;98371.50;;;17.73;62.66
33781;BME280;20097;50.832;19.100;2023-05-02T08:07:51;98379.00;;;17.94;62.56
33781;BME280;20097;50.832;19.100;2023-05-02T08:12:55;98382.91;;;17.92;63.02
33781;BME280;20097;50.832;19.100;2023-05-02T08:17:59;98383.50;;;18.30;63.71
33781;BME280;20097;50.832;19.100;2023-05-02T08:23:04;98385.25;;;18.60;61.39
33781;BME280;20097;50.832;19.100;2023-05-02T08:28:08;98387.19;;;18.83;60.99
33781;BME280;20097;50.832;19.100;2023-05-02T08:33:12;98399.25;;;19.08;61.63
33781;BME280;20097;50.832;19.100;2023-05-02T08:38:17;98389.19;;;18.69;61.45
33781;BME280;20097;50.832;19.100;2023-05-02T08:43:21;98404.41;;;19.03;63.43
33781;BME280;20097;50.832;19.100;2023-05-02T08:48:25;98416.19;;;18.89;61.17
33781;BME280;20097;50.832;19.100;2023-05-02T08:53:32;98416.22;;;18.71;62.51
33781;BME280;20097;50.832;19.100;2023-05-02T08:58:38;98415.78;;;18.74;60.43
33781;BME280;20097;50.832;19.100;2023-05-02T09:03:43;98422.91;;;18.56;59.14
33781;BME280;20097;50.832;19.100;2023-05-02T09:08:49;98420.78;;;18.64;60.72
33781;BME280;20097;50.832;19.100;2023-05-02T09:13:54;98434.59;;;18.48;59.60
33781;BME280;20097;50.832;19.100;2023-05-02T09:19:00;98431.34;;;18.64;60.21
33781;BME280;20097;50.832;19.100;2023-05-02T09:24:15;98426.72;;;18.78;59.69
33781;BME280;20097;50.832;19.100;2023-05-02T09:29:20;98436.00;;;18.98;61.07
33781;BME280;20097;50.832;19.100;2023-05-02T09:34:24;98447.84;;;18.96;59.55
33781;BME280;20097;50.832;19.100;2023-05-02T09:39:29;98445.50;;;19.17;59.70
33781;BME280;20097;50.832;19.100;2023-05-02T09:44:37;98452.66;;;19.17;60.01
33781;BME280;20097;50.832;19.100;2023-05-02T09:49:43;98456.59;;;19.44;63.01
33781;BME280;20097;50.832;19.100;2023-05-02T09:54:49;98469.31;;;19.36;59.42
33781;BME280;20097;50.832;19.100;2023-05-02T09:59:54;98472.72;;;19.25;60.51
33781;BME280;20097;50.832;19.100;2023-05-02T10:04:58;98469.00;;;19.14;60.24
33781;BME280;20097;50.832;19.100;2023-05-02T10:10:07;98474.06;;;19.16;60.02
33781;BME280;20097;50.832;19.100;2023-05-02T10:15:14;98461.31;;;19.24;61.09
33781;BME280;20097;50.832;19.100;2023-05-02T10:20:22;98474.06;;;19.45;59.95
33781;BME280;20097;50.832;19.100;2023-05-02T10:25:31;98474.22;;;19.02;60.81
33781;BME280;20097;50.832;19.100;2023-05-02T10:30:36;98485.06;;;19.12;59.30
33781;BME280;20097;50.832;19.100;2023-05-02T10:35:42;98491.25;;;19.06;60.21
33781;BME280;20097;50.832;19.100;2023-05-02T10:40:52;98494.56;;;19.02;59.76
33781;BME280;20097;50.832;19.100;2023-05-02T10:45:58;98500.94;;;19.12;59.03
33781;BME280;20097;50.832;19.100;2023-05-02T10:51:03;98499.13;;;18.95;59.49
33781;BME280;20097;50.832;19.100;2023-05-02T10:56:14;98502.75;;;18.82;59.47
33781;BME280;20097;50.832;19.100;2023-05-02T11:01:34;98502.88;;;18.69;60.37
33781;BME280;20097;50.832;19.100;2023-05-02T11:07:17;98503.69;;;18.52;60.51
33781;BME280;20097;50.832;19.100;2023-05-02T11:12:45;98498.91;;;18.42;60.41
33781;BME280;20097;50.832;19.100;2023-05-02T11:17:59;98512.72;;;18.38;59.79
33781;BME280;20097;50.832;19.100;2023-05-02T11:23:21;98520.50;;;18.57;57.55
33781;BME280;20097;50.832;19.100;2023-05-02T11:28:40;98524.78;;;18.58;59.21
33781;BME280;20097;50.832;19.100;2023-05-02T11:33:49;98536.25;;;18.46;58.44
33781;BME280;20097;50.832;19.100;2023-05-02T11:38:58;98539.13;;;18.20;59.33
33781;BME280;20097;50.832;19.100;2023-05-02T11:44:04;98544.53;;;18.07;59.33
33781;BME280;20097;50.832;19.100;2023-05-02T11:49:08;98547.78;;;18.02;60.56
33781;BME280;20097;50.832;19.100;2023-05-02T11:54:19;98561.03;;;17.96;59.83
33781;BME280;20097;50.832;19.100;2023-05-02T11:59:26;98568.13;;;18.02;60.73
33781;BME280;20097;50.832;19.100;2023-05-02T12:04:30;98560.81;;;17.72;61.30
33781;BME280;20097;50.832;19.100;2023-05-02T12:09:34;98561.75;;;17.78;62.10
33781;BME280;20097;50.832;19.100;2023-05-02T12:14:39;98576.97;;;18.14;61.41
33781;BME280;20097;50.832;19.100;2023-05-02T12:19:44;98579.59;;;18.14;59.07
33781;BME280;20097;50.832;19.100;2023-05-02T12:24:48;98587.59;;;17.69;55.67
33781;BME280;20097;50.832;19.100;2023-05-02T12:29:54;98590.22;;;17.76;56.31
33781;BME280;20097;50.832;19.100;2023-05-02T12:35:00;98585.63;;;17.58;58.16
33781;BME280;20097;50.832;19.100;2023-05-02T12:40:14;98579.59;;;17.51;59.45
33781;BME280;20097;50.832;19.100;2023-05-02T12:45:20;98584.13;;;17.25;59.23
33781;BME280;20097;50.832;19.100;2023-05-02T12:50:34;98590.22;;;17.25;57.43
33781;BME280;20097;50.832;19.100;2023-05-02T12:55:39;98575.38;;;17.31;59.73
33781;BME280;20097;50.832;19.100;2023-05-02T13:00:45;98576.63;;;17.28;59.02
33781;BME280;20097;50.832;19.100;2023-05-02T13:05:52;98576.28;;;17.62;60.82
33781;BME280;20097;50.832;19.100;2023-05-02T13:10:56;98582.59;;;17.93;59.81
33781;BME280;20097;50.832;19.100;2023-05-02T13:16:02;98591.22;;;17.82;59.57
33781;BME280;20097;50.832;19.100;2023-05-02T13:21:06;98591.53;;;17.60;59.08
33781;BME280;20097;50.832;19.100;2023-05-02T13:26:11;98583.44;;;17.49;59.30
33781;BME280;20097;50.832;19.100;2023-05-02T13:31:17;98584.47;;;17.41;61.64
33781;BME280;20097;50.832;19.100;2023-05-02T13:36:21;98584.59;;;17.15;62.94
33781;BME280;20097;50.832;19.100;2023-05-02T13:41:26;98588.59;;;17.24;62.98
33781;BME280;20097;50.832;19.100;2023-05-02T13:46:32;98586.84;;;17.05;60.62
33781;BME280;20097;50.832;19.100;2023-05-02T13:51:39;98587.75;;;17.30;62.71
33781;BME280;20097;50.832;19.100;2023-05-02T13:56:43;98581.16;;;17.08;61.41
33781;BME280;20097;50.832;19.100;2023-05-02T14:01:49;98588.59;;;17.24;59.69
33781;BME280;20097;50.832;19.100;2023-05-02T14:06:53;98589.09;;;17.59;57.78
33781;BME280;20097;50.832;19.100;2023-05-02T14:11:57;98589.75;;;17.41;57.68
33781;BME280;20097;50.832;19.100;2023-05-02T14:17:02;98583.25;;;17.44;57.72
33781;BME280;20097;50.832;19.100;2023-05-02T14:22:07;98583.88;;;17.46;57.24
33781;BME280;20097;50.832;19.100;2023-05-02T14:27:11;98590.56;;;17.35;56.21
33781;BME280;20097;50.832;19.100;2023-05-02T14:32:21;98590.38;;;17.30;57.40
33781;BME280;20097;50.832;19.100;2023-05-02T14:37:25;98591.03;;;17.19;56.48
33781;BME280;20097;50.832;19.100;2023-05-02T14:42:29;98587.06;;;16.97;56.65
33781;BME280;20097;50.832;19.100;2023-05-02T14:47:35;98585.09;;;16.67;58.16
33781;BME280;20097;50.832;19.100;2023-05-02T14:52:39;98582.88;;;16.64;59.32
33781;BME280;20097;50.832;19.100;2023-05-02T14:57:43;98575.97;;;16.63;60.10
33781;BME280;20097;50.832;19.100;2023-05-02T15:02:48;98579.22;;;16.71;62.05
33781;BME280;20097;50.832;19.100;2023-05-02T15:07:52;98586.72;;;16.61;60.32
33781;BME280;20097;50.832;19.100;2023-05-02T15:12:56;98605.38;;;16.66;57.46
33781;BME280;20097;50.832;19.100;2023-05-02T15:18:02;98615.09;;;16.79;55.89
33781;BME280;20097;50.832;19.100;2023-05-02T15:23:06;98603.97;;;16.57;57.96
33781;BME280;20097;50.832;19.100;2023-05-02T15:28:11;98621.19;;;16.66;56.76
33781;BME280;20097;50.832;19.100;2023-05-02T15:33:16;98623.78;;;16.40;56.30
33781;BME280;20097;50.832;19.100;2023-05-02T15:38:20;98624.84;;;16.46;58.46
33781;BME280;20097;50.832;19.100;2023-05-02T15:43:25;98630.28;;;16.31;60.51
33781;BME280;20097;50.832;19.100;2023-05-02T15:48:31;98625.19;;;16.29;59.98
33781;BME280;20097;50.832;19.100;2023-05-02T15:53:36;98632.09;;;16.17;59.17
33781;BME280;20097;50.832;19.100;2023-05-02T15:58:45;98640.16;;;15.96;59.26
33781;BME280;20097;50.832;19.100;2023-05-02T16:03:51;98641.75;;;15.97;62.93
33781;BME280;20097;50.832;19.100;2023-05-02T16:08:55;98653.06;;;15.85;62.72
33781;BME280;20097;50.832;19.100;2023-05-02T16:13:59;98660.31;;;15.76;62.29
33781;BME280;20097;50.832;19.100;2023-05-02T16:19:04;98654.59;;;15.60;62.78
33781;BME280;20097;50.832;19.100;2023-05-02T16:24:14;98669.56;;;15.53;61.30
33781;BME280;20097;50.832;19.100;2023-05-02T16:29:18;98663.84;;;15.43;62.38
33781;BME280;20097;50.832;19.100;2023-05-02T16:34:23;98656.56;;;15.45;61.91
33781;BME280;20097;50.832;19.100;2023-05-02T16:39:27;98662.59;;;15.39;62.48
33781;BME280;20097;50.832;19.100;2023-05-02T16:44:32;98661.53;;;15.33;63.34
33781;BME280;20097;50.832;19.100;2023-05-02T16:49:37;98653.25;;;15.36;65.78
33781;BME280;20097;50.832;19.100;2023-05-02T16:54:42;98660.09;;;15.31;65.54
33781;BME280;20097;50.832;19.100;2023-05-02T16:59:46;98665.28;;;15.18;66.68
33781;BME280;20097;50.832;19.100;2023-05-02T17:04:52;98670.06;;;15.07;67.22
33781;BME280;20097;50.832;19.100;2023-05-02T17:09:55;98668.22;;;15.01;68.29
33781;BME280;20097;50.832;19.100;2023-05-02T17:14:59;98671.19;;;14.92;69.21
33781;BME280;20097;50.832;19.100;2023-05-02T17:20:07;98683.25;;;14.86;69.85
33781;BME280;20097;50.832;19.100;2023-05-02T17:25:12;98683.78;;;14.75;70.33
33781;BME280;20097;50.832;19.100;2023-05-02T17:30:16;98680.91;;;14.70;70.85
33781;BME280;20097;50.832;19.100;2023-05-02T17:35:22;98687.72;;;14.58;75.65
33781;BME280;20097;50.832;19.100;2023-05-02T17:40:26;98687.84;;;14.50;76.39
33781;BME280;20097;50.832;19.100;2023-05-02T17:45:31;98693.75;;;14.38;78.36
33781;BME280;20097;50.832;19.100;2023-05-02T17:50:37;98705.28;;;14.37;79.32
33781;BME280;20097;50.832;19.100;2023-05-02T17:55:40;98738.09;;;14.26;85.46
33781;BME280;20097;50.832;19.100;2023-05-02T18:00:44;98745.41;;;13.95;100.00
33781;BME280;20097;50.832;19.100;2023-05-02T18:05:50;98751.28;;;13.82;100.00
33781;BME280;20097;50.832;19.100;2023-05-02T18:10:54;98757.38;;;13.54;100.00
33781;BME280;20097;50.832;19.100;2023-05-02T18:15:59;98751.66;;;13.36;100.00
33781;BME280;20097;50.832;19.100;2023-05-02T18:21:07;98759.31;;;13.23;100.00
33781;BME280;20097;50.832;19.100;2023-05-02T18:26:12;98753.53;;;13.13;100.00
33781;BME280;20097;50.832;19.100;2023-05-02T18:31:17;98762.28;;;13.05;100.00
33781;BME280;20097;50.832;19.100;2023-05-02T18:36:26;98759.53;;;12.99;100.00
33781;BME280;20097;50.832;19.100;2023-05-02T18:41:30;98768.78;;;12.87;100.00
33781;BME280;20097;50.832;19.100;2023-05-02T18:46:34;98775.75;;;12.80;100.00
33781;BME280;20097;50.832;19.100;2023-05-02T18:51:40;98780.03;;;12.73;100.00
33781;BME280;20097;50.832;19.100;2023-05-02T18:56:44;98777.31;;;12.66;100.00
33781;BME280;20097;50.832;19.100;2023-05-02T19:01:49;98776.13;;;12.69;100.00
33781;BME280;20097;50.832;19.100;2023-05-02T19:06:55;98781.91;;;12.64;100.00
33781;BME280;20097;50.832;19.100;2023-05-02T19:11:59;98782.06;;;12.63;100.00
33781;BME280;20097;50.832;19.100;2023-05-02T19:17:03;98785.69;;;12.62;100.00
33781;BME280;20097;50.832;19.100;2023-05-02T19:22:09;98787.13;;;12.64;100.00
33781;BME280;20097;50.832;19.100;2023-05-02T19:27:13;98800.41;;;12.63;100.00
33781;BME280;20097;50.832;19.100;2023-05-02T19:32:17;98807.78;;;12.59;100.00
33781;BME280;20097;50.832;19.100;2023-05-02T19:37:24;98810.75;;;12.56;100.00
33781;BME280;20097;50.832;19.100;2023-05-02T19:42:28;98810.28;;;12.53;100.00
33781;BME280;20097;50.832;19.100;2023-05-02T19:47:32;98819.19;;;12.43;100.00
33781;BME280;20097;50.832;19.100;2023-05-02T19:52:38;98819.88;;;12.37;100.00
33781;BME280;20097;50.832;19.100;2023-05-02T19:57:43;98823.72;;;12.19;100.00
33781;BME280;20097;50.832;19.100;2023-05-02T20:02:47;98827.84;;;12.13;100.00
33781;BME280;20097;50.832;19.100;2023-05-02T20:07:54;98838.81;;;12.09;100.00
33781;BME280;20097;50.832;19.100;2023-05-02T20:12:58;98849.00;;;11.96;100.00
33781;BME280;20097;50.832;19.100;2023-05-02T20:18:02;98840.34;;;11.87;100.00
33781;BME280;20097;50.832;19.100;2023-05-02T20:23:08;98845.00;;;11.77;100.00
33781;BME280;20097;50.832;19.100;2023-05-02T20:28:11;98850.22;;;11.69;100.00
33781;BME280;20097;50.832;19.100;2023-05-02T20:33:15;98856.78;;;11.65;100.00
33781;BME280;20097;50.832;19.100;2023-05-02T20:38:22;98856.13;;;11.47;100.00
33781;BME280;20097;50.832;19.100;2023-05-02T20:43:26;98858.06;;;11.45;100.00
33781;BME280;20097;50.832;19.100;2023-05-02T20:48:30;98850.56;;;11.42;100.00
33781;BME280;20097;50.832;19.100;2023-05-02T20:53:37;98860.38;;;11.40;100.00
33781;BME280;20097;50.832;19.100;2023-05-02T20:58:41;98860.53;;;11.31;100.00
33781;BME280;20097;50.832;19.100;2023-05-02T21:03:44;98864.94;;;11.22;100.00
33781;BME280;20097;50.832;19.100;2023-05-02T21:08:50;98884.88;;;11.15;100.00
33781;BME280;20097;50.832;19.100;2023-05-02T21:13:56;98877.22;;;11.05;100.00
33781;BME280;20097;50.832;19.100;2023-05-02T21:19:00;98883.56;;;11.03;100.00
33781;BME280;20097;50.832;19.100;2023-05-02T21:24:07;98879.94;;;10.88;100.00
33781;BME280;20097;50.832;19.100;2023-05-02T21:29:11;98879.94;;;10.88;100.00
33781;BME280;20097;50.832;19.100;2023-05-02T21:34:16;98881.41;;;10.82;100.00
33781;BME280;20097;50.832;19.100;2023-05-02T21:39:22;98885.31;;;10.78;100.00
33781;BME280;20097;50.832;19.100;2023-05-02T21:44:27;98876.69;;;10.78;100.00
33781;BME280;20097;50.832;19.100;2023-05-02T21:49:31;98885.31;;;10.70;100.00
33781;BME280;20097;50.832;19.100;2023-05-02T21:54:37;98883.84;;;10.68;100.00
33781;BME280;20097;50.832;19.100;2023-05-02T21:59:41;98890.53;;;10.70;100.00
33781;BME280;20097;50.832;19.100;2023-05-02T22:04:45;98894.78;;;10.71;100.00
33781;BME280;20097;50.832;19.100;2023-05-02T22:09:51;98892.34;;;10.70;100.00
33781;BME280;20097;50.832;19.100;2023-05-02T22:14:55;98896.56;;;10.71;100.00
33781;BME280;20097;50.832;19.100;2023-05-02T22:19:59;98904.41;;;10.71;100.00
33781;BME280;20097;50.832;19.100;2023-05-02T22:25:06;98903.06;;;10.67;100.00
33781;BME280;20097;50.832;19.100;2023-05-02T22:30:10;98904.06;;;10.66;100.00
33781;BME280;20097;50.832;19.100;2023-05-02T22:35:14;98906.66;;;10.66;100.00
33781;BME280;20097;50.832;19.100;2023-05-02T22:40:21;98913.22;;;10.70;100.00
33781;BME280;20097;50.832;19.100;2023-05-02T22:45:25;98914.50;;;10.66;100.00
33781;BME280;20097;50.832;19.100;2023-05-02T22:50:29;98920.38;;;10.68;100.00
33781;BME280;20097;50.832;19.100;2023-05-02T22:55:37;98922.19;;;10.67;100.00
33781;BME280;20097;50.832;19.100;2023-05-02T23:00:44;98924.47;;;10.70;100.00
33781;BME280;20097;50.832;19.100;2023-05-02T23:05:48;98925.63;;;10.76;100.00
33781;BME280;20097;50.832;19.100;2023-05-02T23:10:53;98929.06;;;10.76;100.00
33781;BME280;20097;50.832;19.100;2023-05-02T23:15:58;98925.97;;;10.81;100.00
33781;BME280;20097;50.832;19.100;2023-05-02T23:21:02;98927.44;;;10.83;100.00
33781;BME280;20097;50.832;19.100;2023-05-02T23:26:08;98929.25;;;10.83;100.00
33781;BME280;20097;50.832;19.100;2023-05-02T23:31:12;98924.66;;;10.85;100.00
33781;BME280;20097;50.832;19.100;2023-05-02T23:36:16;98928.59;;;10.81;100.00
33781;BME280;20097;50.832;19.100;2023-05-02T23:41:21;98934.16;;;10.86;100.00
33781;BME280;20097;50.832;19.100;2023-05-02T23:46:27;98927.59;;;10.82;100.00
33781;BME280;20097;50.832;19.100;2023-05-02T23:51:32;98926.94;;;10.80;100.00
33781;BME280;20097;50.832;19.100;2023-05-02T23:56:37;98927.91;;;10.71;100.00
